Time;durP1;ratioP1;P1;durP2;ratioP2;P2;SDS_P1;SDS_P2;PMS_P1;PMS_P2;Temp;Humidity;BMP_temperature;BMP_pressure;BME280_temperature;BME280_humidity;BME280_pressure;Samples;Min_cycle;Max_cycle;Signal;HPM_P1;HPM_P2
2021/02/15 00:08:01;;;;;;;35.9;20.4;;;;;;;-6.8;81.6709;100739.1;;;;
2021/02/15 00:17:58;;;;;;;48.6;19.8;;;;;;;-6.91;82.21289;100737.5;;;;
2021/02/15 00:27:55;;;;;;;35.7;21.5;;;;;;;-6.9;82.62305;100738.3;;;;
2021/02/15 00:37:52;;;;;;;35.7;20.7;;;;;;;-6.9;82.84082;100749.6;;;;
2021/02/15 00:47:49;;;;;;;35.3;21.3;;;;;;;-6.98;83.63574;100741.7;;;;
2021/02/15 00:57:46;;;;;;;42.5;21;;;;;;;-6.97;83.59277;100747.7;;;;
2021/02/15 01:07:42;;;;;;;40.2;26.8;;;;;;;-7.18;84.4707;100751.4;;;;
2021/02/15 01:17:39;;;;;;;37.3;24;;;;;;;-7.22;84.68848;100734.3;;;;
2021/02/15 01:27:36;;;;;;;37.5;22.7;;;;;;;-7.3;84.97461;100726.3;;;;
2021/02/15 01:37:33;;;;;;;36.9;23.1;;;;;;;-7.38;85.53027;100728.8;;;;
2021/02/15 01:47:30;;;;;;;38;23.4;;;;;;;-7.39;85.59277;100713.2;;;;
2021/02/15 01:57:27;;;;;;;36.5;22.2;;;;;;;-7.38;85.82129;100684.3;;;;
2021/02/15 02:07:23;;;;;;;40.9;25;;;;;;;-7.43;86.30664;100696.1;;;;
2021/02/15 02:17:20;;;;;;;48.5;27.4;;;;;;;-7.37;86.01758;100696.4;;;;
2021/02/15 02:27:17;;;;;;;47.6;26.3;;;;;;;-7.52;86.24707;100684.7;;;;
2021/02/15 02:37:14;;;;;;;37.3;22.8;;;;;;;-7.48;86.00488;100693.1;;;;
2021/02/15 02:47:11;;;;;;;38.6;22.4;;;;;;;-7.44;85.75684;100692.7;;;;
2021/02/15 02:57:08;;;;;;;43.3;23.9;;;;;;;-7.42;85.68457;100690.8;;;;
2021/02/15 03:07:04;;;;;;;31.2;19.7;;;;;;;-7.3;85.43848;100691.4;;;;
2021/02/15 03:17:01;;;;;;;33.1;20;;;;;;;-7.4;85.51563;100678.4;;;;
2021/02/15 03:26:59;;;;;;;29.9;15.7;;;;;;;-7.59;85.60547;100683.6;;;;
2021/02/15 03:36:55;;;;;;;38.3;18.2;;;;;;;-7.71;86.02539;100669.9;;;;
2021/02/15 03:46:52;;;;;;;30;18.2;;;;;;;-7.84;86.54492;100671.1;;;;
2021/02/15 03:56:49;;;;;;;30.7;15.5;;;;;;;-7.77;86.33398;100669.6;;;;
2021/02/15 04:06:46;;;;;;;42.3;21.5;;;;;;;-7.67;86.15137;100681.7;;;;
2021/02/15 04:16:43;;;;;;;35.3;17.9;;;;;;;-7.88;86.25781;100672.4;;;;
2021/02/15 04:26:39;;;;;;;33.2;18.4;;;;;;;-8.09;86.47363;100667.3;;;;
2021/02/15 04:36:37;;;;;;;43.6;18.8;;;;;;;-8.21;86.76172;100661.3;;;;
2021/02/15 04:46:33;;;;;;;43.1;22.9;;;;;;;-8.08;86.71289;100674.1;;;;
2021/02/15 04:56:30;;;;;;;21.3;13.4;;;;;;;-8.31;85.95605;100634.4;;;;
2021/02/15 05:06:27;;;;;;;19.5;13.7;;;;;;;-8.15;85.19043;100667.8;;;;
2021/02/15 05:16:23;;;;;;;20.6;12.7;;;;;;;-8.13;84.57813;100670.3;;;;
2021/02/15 05:26:20;;;;;;;25.7;13.9;;;;;;;-8.11;83.9375;100684;;;;
2021/02/15 05:36:17;;;;;;;27.5;15.5;;;;;;;-8.38;84.70215;100658.6;;;;
2021/02/15 05:46:13;;;;;;;28.6;15.1;;;;;;;-8.36;84.69727;100660.1;;;;
2021/02/15 05:56:10;;;;;;;28.7;18;;;;;;;-8.35;84.95508;100674;;;;
2021/02/15 06:06:07;;;;;;;26.2;16.6;;;;;;;-8.32;84.29297;100673.7;;;;
2021/02/15 06:16:04;;;;;;;30.2;16.3;;;;;;;-8.24;83.86914;100666.8;;;;
2021/02/15 06:26:01;;;;;;;24.1;14.6;;;;;;;-8.11;83.85156;100671;;;;
2021/02/15 06:35:57;;;;;;;31.4;19.3;;;;;;;-8.07;83.55859;100649.6;;;;
2021/02/15 06:45:54;;;;;;;35.8;18.2;;;;;;;-8.14;83.5127;100648.5;;;;
2021/02/15 06:55:51;;;;;;;25.1;14.6;;;;;;;-7.75;83.43945;100665;;;;
2021/02/15 07:05:48;;;;;;;27.8;15.7;;;;;;;-7.43;82.0127;100657.7;;;;
2021/02/15 07:15:44;;;;;;;36.1;21;;;;;;;-7.56;81.5;100638;;;;
2021/02/15 07:25:43;;;;;;;31.4;21.2;;;;;;;-7.19;80.65625;100663.3;;;;
2021/02/15 07:35:46;;;;;;;34.8;21.3;;;;;;;-6.73;78.85059;100651.9;;;;
2021/02/15 07:45:43;;;;;;;26.4;15.4;;;;;;;-6.3;75.86133;100666.1;;;;
2021/02/15 07:55:32;;;;;;;31.2;21.3;;;;;;;-6.17;74.04199;100667.4;;;;
2021/02/15 08:05:29;;;;;;;37.7;25.3;;;;;;;-6.52;74.50098;100662.1;;;;
2021/02/15 08:15:26;;;;;;;29.5;21.2;;;;;;;-6.21;74.53516;100663.4;;;;
2021/02/15 08:25:23;;;;;;;100.6;65.5;;;;;;;-5.84;73.42676;100639.7;;;;
2021/02/15 08:35:20;;;;;;;34.8;23.9;;;;;;;-5.27;71.68555;100638.2;;;;
2021/02/15 08:45:17;;;;;;;39.5;23.7;;;;;;;-5.23;71.26855;100649.3;;;;
2021/02/15 08:55:14;;;;;;;37.1;27.4;;;;;;;-5.23;71.23633;100649.3;;;;
2021/02/15 09:05:11;;;;;;;46.8;31.3;;;;;;;-4.94;69.93262;100649.8;;;;
2021/02/15 09:15:09;;;;;;;38.6;27.6;;;;;;;-4.45;68.0166;100635;;;;
2021/02/15 09:25:06;;;;;;;44.3;30.5;;;;;;;-4.42;67.49707;100641.7;;;;
2021/02/15 09:35:03;;;;;;;48.8;33;;;;;;;-4.34;66.53906;100650.4;;;;
2021/02/15 09:45:00;;;;;;;59;36.6;;;;;;;-4.21;65.30273;100653.5;;;;
2021/02/15 09:54:57;;;;;;;53.4;35.7;;;;;;;-4.24;65.64648;100638;;;;
2021/02/15 10:04:55;;;;;;;45.7;30.5;;;;;;;-3.91;65.21582;100644.1;;;;
2021/02/15 10:14:52;;;;;;;47.9;31.1;;;;;;;-4.04;65.06543;100635.9;;;;
2021/02/15 10:24:49;;;;;;;53.8;40;;;;;;;-3.49;62.66113;100630.8;;;;
2021/02/15 10:34:47;;;;;;;51;38.2;;;;;;;-4.07;64.71094;100610.7;;;;
2021/02/15 10:44:43;;;;;;;54.4;34;;;;;;;-4.16;64.52051;100605.6;;;;
2021/02/15 10:54:40;;;;;;;58.3;32.3;;;;;;;-4.21;65.92578;100590.3;;;;
2021/02/15 11:04:38;;;;;;;54.7;34.5;;;;;;;-4.38;66.03906;100587.8;;;;
2021/02/15 11:24:32;;;;;;;70.7;39.7;;;;;;;-4.43;65.84473;100561.1;;;;
2021/02/15 11:34:29;;;;;;;56.4;38.8;;;;;;;-4.48;66.25391;100559;;;;
2021/02/15 11:44:26;;;;;;;61.6;40.9;;;;;;;-4.38;65.97266;100535.2;;;;
2021/02/15 11:54:24;;;;;;;61.1;37.6;;;;;;;-4.2;65.72949;100526.1;;;;
2021/02/15 12:04:21;;;;;;;55.9;39.1;;;;;;;-3.72;64.9834;100527.9;;;;
2021/02/15 12:14:18;;;;;;;49.3;36.6;;;;;;;-3.53;64.44238;100521.4;;;;
2021/02/15 12:24:15;;;;;;;46.7;38.6;;;;;;;-3.48;65.06445;100503.3;;;;
2021/02/15 12:34:13;;;;;;;62.9;41.8;;;;;;;-3.43;64.66602;100500.9;;;;
2021/02/15 12:44:10;;;;;;;65.3;38;;;;;;;-3.56;64.33887;100492.7;;;;
2021/02/15 12:54:07;;;;;;;71;39.8;;;;;;;-3.64;64.20703;100477.8;;;;
2021/02/15 13:04:04;;;;;;;74.1;45.4;;;;;;;-3.6;64.00391;100488.8;;;;
2021/02/15 13:14:02;;;;;;;60.8;39.1;;;;;;;-3.56;64.31641;100479.6;;;;
2021/02/15 13:23:59;;;;;;;49.5;38;;;;;;;-3.63;64.60254;100492.6;;;;
2021/02/15 13:33:57;;;;;;;44.1;30.3;;;;;;;-3.6;64.90234;100486.2;;;;
2021/02/15 13:43:54;;;;;;;31.1;23.4;;;;;;;-3.38;64.98047;100472.3;;;;
2021/02/15 13:53:52;;;;;;;27.1;21.2;;;;;;;-3.28;65.57617;100462.3;;;;
2021/02/15 14:03:48;;;;;;;30.7;19;;;;;;;-3.21;65.78516;100460.6;;;;
2021/02/15 14:13:46;;;;;;;28;13.1;;;;;;;-3.39;65.29688;100454.8;;;;
2021/02/15 14:23:43;;;;;;;25.1;17.3;;;;;;;-3.44;65.62891;100445.8;;;;
2021/02/15 14:33:40;;;;;;;26.9;14.1;;;;;;;-3.18;65.64648;100435.7;;;;
2021/02/15 14:43:39;;;;;;;28.3;22.1;;;;;;;-3.22;65.52051;100430;;;;
2021/02/15 14:53:35;;;;;;;33.9;19.8;;;;;;;-3.42;66.11426;100413;;;;
2021/02/15 15:03:32;;;;;;;35.7;22.9;;;;;;;-3.47;66.46777;100394.2;;;;
2021/02/15 15:13:29;;;;;;;32.4;23.5;;;;;;;-3.79;67.87207;100378.6;;;;
2021/02/15 15:23:27;;;;;;;36.7;23.7;;;;;;;-3.95;68.0957;100368.1;;;;
2021/02/15 15:33:24;;;;;;;50.8;23.1;;;;;;;-4.28;69.28906;100370;;;;
2021/02/15 15:43:21;;;;;;;48;27.9;;;;;;;-4.9;69.42676;100337.4;;;;
2021/02/15 15:53:19;;;;;;;42.6;20.2;;;;;;;-5.18;69.9707;100374.5;;;;
2021/02/15 16:03:15;;;;;;;36.5;22.1;;;;;;;-5.74;71.34375;100384.9;;;;
2021/02/15 16:13:13;;;;;;;36.7;21.2;;;;;;;-6.14;72.77637;100378.5;;;;
2021/02/15 16:23:10;;;;;;;31.8;20.5;;;;;;;-6.41;73.6416;100373.4;;;;
2021/02/15 16:33:07;;;;;;;37.9;19.8;;;;;;;-6.65;74.44531;100352.3;;;;
2021/02/15 16:43:03;;;;;;;32.2;19.3;;;;;;;-6.86;75.28613;100339.5;;;;
2021/02/15 16:53:00;;;;;;;29.4;20.1;;;;;;;-6.91;76.67383;100339.2;;;;
2021/02/15 17:02:57;;;;;;;32;18.7;;;;;;;-6.91;77.85352;100333.1;;;;
2021/02/15 17:12:54;;;;;;;52.8;30;;;;;;;-6.87;78.22852;100324;;;;
2021/02/15 17:22:51;;;;;;;41.5;29.6;;;;;;;-6.99;77.97754;100314.7;;;;
2021/02/15 17:32:48;;;;;;;41;23.4;;;;;;;-7.04;79.04004;100309.1;;;;
2021/02/15 17:42:45;;;;;;;44.8;25.7;;;;;;;-7.18;78.90527;100305.2;;;;
2021/02/15 17:52:42;;;;;;;35.7;24.6;;;;;;;-7.34;78.5957;100300.7;;;;
2021/02/15 18:02:39;;;;;;;38.8;21.5;;;;;;;-7.46;79.58789;100303.7;;;;
2021/02/15 18:12:39;;;;;;;57.6;31.3;;;;;;;-7.5;80.3916;100303.2;;;;
2021/02/15 18:22:32;;;;;;;58.4;31.5;;;;;;;-7.66;80.31543;100295.1;;;;
2021/02/15 18:32:29;;;;;;;48.5;25.4;;;;;;;-7.67;81.51367;100288.3;;;;
2021/02/15 18:42:26;;;;;;;39.2;21.4;;;;;;;-7.65;80.6748;100273.2;;;;
2021/02/15 18:52:23;;;;;;;45.1;25.9;;;;;;;-7.61;81.48047;100279.8;;;;
2021/02/15 19:02:26;;;;;;;41.1;22.9;;;;;;;-7.58;81.22754;100281.3;;;;
2021/02/15 19:12:23;;;;;;;37.3;22.4;;;;;;;-7.66;80.62891;100271.6;;;;
2021/02/15 19:22:14;;;;;;;38.8;24.3;;;;;;;-7.71;81.05371;100274.7;;;;
2021/02/15 19:32:12;;;;;;;34.7;24.7;;;;;;;-7.67;81.5459;100259.5;;;;
2021/02/15 19:42:07;;;;;;;46.5;28.6;;;;;;;-7.7;81.67969;100238.8;;;;
2021/02/15 19:52:04;;;;;;;47.3;26.1;;;;;;;-7.71;81.6582;100219.7;;;;
2021/02/15 20:02:01;;;;;;;66.4;41.7;;;;;;;-7.95;81.54395;100223.9;;;;
2021/02/15 20:11:58;;;;;;;74.1;40.7;;;;;;;-8.05;81.74121;100210.9;;;;
2021/02/15 20:21:55;;;;;;;56.4;32;;;;;;;-8.11;82.7207;100192.3;;;;
2021/02/15 20:31:51;;;;;;;59.4;33.5;;;;;;;-8.17;81.44922;100171.1;;;;
2021/02/15 20:41:48;;;;;;;61.3;28.8;;;;;;;-8.22;80.46777;100164.6;;;;
2021/02/15 20:51:52;;;;;;;60.9;29.4;;;;;;;-8.24;80.68066;100146.5;;;;
2021/02/15 21:01:42;;;;;;;292.9;140.3;;;;;;;-8.34;80.47852;100137.9;;;;
2021/02/15 21:11:39;;;;;;;127.2;61.7;;;;;;;-8.35;80.99219;100119.8;;;;
2021/02/15 21:21:35;;;;;;;131.2;57.1;;;;;;;-8.42;80.78418;100108.2;;;;
2021/02/15 21:31:32;;;;;;;119.2;59;;;;;;;-8.54;80.50488;100084.1;;;;
2021/02/15 21:41:29;;;;;;;93;56.9;;;;;;;-8.66;80.69629;100067;;;;
2021/02/15 21:51:26;;;;;;;110.3;60.2;;;;;;;-8.82;81.05273;100044.2;;;;
2021/02/15 22:01:23;;;;;;;49.6;27.8;;;;;;;-9.11;83.78027;100030.5;;;;
2021/02/15 22:11:19;;;;;;;40.5;26.5;;;;;;;-9.09;83.4502;100004.2;;;;
2021/02/15 22:21:16;;;;;;;36.5;19.3;;;;;;;-8.81;86.29199;99997.95;;;;
2021/02/15 22:31:13;;;;;;;52.8;32.4;;;;;;;-8.62;86.36523;100000.4;;;;
2021/02/15 22:41:09;;;;;;;83.3;43.7;;;;;;;-8.58;85.20898;99990.5;;;;
2021/02/15 22:51:06;;;;;;;145.4;86.8;;;;;;;-8.96;82.34863;99999.46;;;;
2021/02/15 23:01:03;;;;;;;130.1;73.1;;;;;;;-9.19;82.45508;99999.88;;;;
2021/02/15 23:10:59;;;;;;;115.5;69;;;;;;;-9.4;81.64941;100012.4;;;;
2021/02/15 23:20:57;;;;;;;131.8;76.7;;;;;;;-9.75;81.25879;100004.4;;;;
2021/02/15 23:30:52;;;;;;;94.7;56.8;;;;;;;-9.79;83.17383;100009.1;;;;
2021/02/15 23:40:49;;;;;;;100.1;51.9;;;;;;;-9.87;84.48633;100003;;;;
2021/02/15 23:50:46;;;;;;;69.7;36.7;;;;;;;-9.76;84.38086;100001;;;;
